Latest Weather Observations for Coen Airport

IDQ60801

Issued at 7:32 pm EST Sunday 20 August 2017 (issued every 30 minutes, with the page automatically refreshed every 10 minutes)

About weather observations | Map of weather stations | Latest weather observations for QLD | Other Formats
Station Details ID: 027073 Name: COEN AIRPORT Lat: -13.76 Lon: 143.12 Height: 159.3 m
Data from the previous 72 hours. | See also: Recent months at Coen Airport
Date/Time
EST
Temp
°C
App
Temp
°C
Dew
Point
°C
Rel
Hum
%
Delta-T
°C
Wind Press
QNH
hPa
Press
MSL
hPa
Rain since
9am
mm
Dir  Spd
km/h
Gust
km/h
Spd
kts
Gust
kts
20/07:30pm 22.7 21.4 15.8 65 4.2 ENE 17 32 9 17 1014.2 1013.4 0.0
20/07:00pm 23.1 21.2 15.7 63 4.5 ENE 20 32 11 17 1013.9 1013.1 0.0
20/06:30pm 23.5 21.6 15.3 60 4.9 ENE 19 28 10 15 1013.7 1012.9 0.0
20/06:00pm 24.5 23.0 13.1 49 6.7 ENE 13 20 7 11 1013.5 1012.7 0.0
20/05:30pm 25.4 22.6 12.6 45 7.4 ENE 19 30 10 16 1013.4 1012.6 0.0
20/05:00pm 26.0 23.3 13.5 46 7.4 NE 20 32 11 17 1013.3 1012.5 0.0
20/04:30pm 26.7 24.9 16.0 52 6.6 NE 20 32 11 17 1013.1 1012.3 0.0
20/04:00pm 26.9 25.1 15.6 50 6.9 ENE 19 28 10 15 1013.1 1012.3 0.0
20/03:30pm 27.6 25.6 14.9 45 7.7 E 19 28 10 15 1013.0 1012.2 0.0
20/03:00pm 28.0 25.7 14.6 44 8.1 ENE 20 33 11 18 1013.2 1012.4 0.0
20/02:30pm 29.0 27.4 15.9 45 8.1 ENE 19 28 10 15 1013.3 1012.5 0.0
20/02:00pm 29.3 27.6 15.8 44 8.4 ENE 19 32 10 17 1013.5 1012.7 0.0
20/01:30pm 29.7 28.4 16.8 45 8.1 E 19 33 10 18 1013.7 1012.9 0.0
20/01:00pm 28.2 25.3 15.1 44 8.0 NE 24 37 13 20 1014.0 1013.2 0.0
20/12:30pm 28.9 27.2 15.8 45 8.1 ENE 19 28 10 15 1014.5 1013.8 0.0
20/12:00pm 28.3 26.5 15.6 46 7.8 ENE 19 43 10 23 1014.8 1014.1 0.0
20/11:30am 29.0 27.0 15.5 44 8.3 ENE 20 35 11 19 1015.2 1014.5 0.0
20/11:00am 28.4 26.7 16.3 47 7.5 ENE 20 33 11 18 1015.7 1015.0 0.0
20/10:30am 27.3 24.0 15.0 47 7.5 ENE 26 39 14 21 1016.0 1015.3 0.0
20/10:00am 26.9 24.5 15.3 49 7.1 E 22 43 12 23 1016.3 1015.6 0.0
20/09:30am 27.0 25.3 16.3 52 6.6 E 20 35 11 19 1016.2 1015.5 0.0
20/09:00am 26.2 24.9 16.7 56 5.9 E 19 30 10 16 1016.2 1015.5 0.0
20/08:30am 25.4 24.5 16.8 59 5.4 E 17 24 9 13 1015.8 1015.1 0.0
20/08:00am 24.3 23.8 16.8 63 4.6 E 15 24 8 13 1015.7 1015.0 0.0
20/07:30am 23.4 22.5 16.9 67 4.0 ENE 17 28 9 15 1015.4 1014.7 0.0
20/07:00am 21.8 22.3 16.5 72 3.2 SE 9 24 5 13 1015.3 1014.6 0.0
20/06:30am 21.8 22.1 15.9 69 3.6 ESE 9 13 5 7 1015.2 1014.5 0.0
20/06:00am 21.7 21.8 15.5 68 3.7 SSE 9 15 5 8 1014.8 1014.1 0.0
20/05:30am 22.8 22.1 16.4 67 3.9 E 15 26 8 14 1014.0 1013.2 0.0
20/05:00am 22.6 21.6 16.6 69 3.7 ENE 17 30 9 16 1013.6 1012.8 0.0
20/04:30am 22.6 22.6 17.1 71 3.4 ENE 13 24 7 13 1013.4 1012.6 0.0
20/04:00am 21.9 23.5 16.8 73 3.1 N 4 9 2 5 1013.7 1012.9 0.0
20/03:30am 22.4 23.6 16.9 71 3.4 N 6 11 3 6 1013.8 1013.0 0.0
20/03:00am 22.6 23.3 16.2 67 3.9 S 7 19 4 10 1013.9 1013.1 0.0
20/02:30am 22.7 22.2 15.8 65 4.2 SSE 13 24 7 13 1014.0 1013.2 0.0
20/02:00am 22.5 22.9 16.3 68 3.8 ENE 9 20 5 11 1013.9 1013.1 0.0
20/01:30am 21.9 22.9 16.8 73 3.1 NNW 7 15 4 8 1014.2 1013.4 0.0
20/01:00am 22.2 22.3 16.5 70 3.5 NE 11 20 6 11 1014.4 1013.6 0.0
20/12:30am 22.0 22.6 16.7 72 3.3 NE 9 13 5 7 1014.8 1014.1 0.0
20/12:00am 21.7 22.6 16.2 71 3.3 NNE 6 11 3 6 1015.1 1014.4 0.0
 
Date/Time
EST
Temp
°C
App
Temp
°C
Dew
Point
°C
Rel
Hum
%
Delta-T
°C
Wind Press
QNH
hPa
Press
MSL
hPa
Rain since
9am
mm
Dir  Spd
km/h
Gust
km/h
Spd
kts
Gust
kts
19/11:30pm 21.9 22.5 16.8 73 3.1 NNE 9 15 5 8 1015.0 1014.3 0.0
19/11:00pm 22.7 23.2 16.5 68 3.8 ENE 9 17 5 9 1015.1 1014.4 0.0
19/10:30pm 22.5 23.0 16.5 69 3.7 NNE 9 17 5 9 1015.2 1014.5 0.0
19/10:00pm 22.7 22.8 16.5 68 3.8 NE 11 24 6 13 1015.2 1014.5 0.0
19/09:30pm 22.5 22.1 17.2 72 3.3 NNE 15 24 8 13 1015.1 1014.4 0.0
19/09:00pm 22.2 22.6 17.3 74 3.0 NNE 11 17 6 9 1014.9 1014.2 0.0
19/08:30pm 22.4 22.8 17.3 73 3.2 NE 11 20 6 11 1014.7 1014.0 0.0
19/08:00pm 21.6 21.8 16.8 74 2.9 NE 11 15 6 8 1014.4 1013.6 0.0
19/07:30pm 22.4 23.7 17.1 72 3.3 NNE 6 9 3 5 1014.2 1013.4 0.0
19/07:00pm 23.5 25.5 17.0 67 4.0 NE 2 11 1 6 1013.9 1013.1 0.0
19/06:30pm 25.6 26.2 15.3 53 6.3 E 6 11 3 6 1013.6 1012.8 0.0
19/06:00pm 27.1 25.9 14.1 44 7.8 ENE 13 20 7 11 1013.2 1012.4 0.0
19/05:30pm 28.6 27.4 14.1 41 8.8 E 13 22 7 12 1012.9 1012.1 0.0
19/05:00pm 29.4 27.4 14.0 39 9.3 E 17 24 9 13 1012.8 1012.0 0.0
19/04:30pm 30.2 27.7 13.5 36 10.1 ESE 19 30 10 16 1012.8 1012.0 0.0
19/04:00pm 30.4 26.3 11.4 31 11.1 E 24 35 13 19 1012.7 1011.9 0.0
19/03:30pm 31.3 28.0 11.7 30 11.5 E 20 30 11 16 1012.7 1011.9 0.0
19/03:00pm 31.4 28.4 12.7 32 11.2 ENE 20 35 11 19 1012.9 1012.1 0.0
19/02:30pm 31.8 29.5 11.6 29 11.9 E 15 30 8 16 1013.1 1012.3 0.0
19/02:00pm 32.1 29.4 11.8 29 12.0 E 17 37 9 20 1013.4 1012.6 0.0
19/01:30pm 31.8 28.5 11.6 29 11.9 ESE 20 30 11 16 1013.9 1013.1 0.0
19/01:00pm 31.4 28.1 11.7 29 11.6 E 20 43 11 23 1014.4 1013.6 0.0
19/12:30pm 30.9 28.1 13.2 34 10.6 ENE 20 33 11 18 1014.8 1014.1 0.0
19/12:00pm 30.7 28.6 13.5 35 10.4 NE 17 26 9 14 1015.0 1014.3 0.0
19/11:30am 30.2 28.3 14.3 38 9.7 NE 17 28 9 15 1015.4 1014.7 0.0
19/11:00am 28.2 26.1 15.1 44 8.0 NE 20 33 11 18 1016.0 1015.3 0.0
19/10:30am 28.7 26.7 15.6 45 8.1 NE 20 28 11 15 1016.3 1015.6 0.0
19/10:00am 27.3 25.4 15.7 49 7.1 ENE 20 32 11 17 1016.1 1015.4 0.0
19/09:30am 26.1 23.5 15.8 53 6.3 ENE 24 35 13 19 1015.9 1015.2 0.0
19/09:00am 25.2 23.3 15.8 56 5.7 ENE 20 37 11 20 1015.6 1014.9 0.0
19/08:30am 23.0 23.9 16.5 67 4.0 SW 7 9 4 5 1015.6 1014.9 0.0
19/08:00am 20.5 21.4 16.7 79 2.3 W 7 9 4 5 1015.4 1014.7 0.0
19/07:30am 17.3 18.4 15.6 90 1.0 WSW 4 11 2 6 1015.3 1014.6 0.0
19/07:00am 15.2 15.2 13.7 91 0.8 WSW 6 9 3 5 1015.0 1014.3 0.0
19/06:30am 15.2 16.0 13.7 91 0.8 SW 2 7 1 4 1014.5 1013.8 0.0
19/06:00am 15.5 16.5 13.2 86 1.3 CALM 0 0 0 0 1014.0 1013.2 0.0
19/05:30am 16.9 17.7 13.8 82 1.8 W 2 7 1 4 1013.9 1013.1 0.0
19/05:00am 17.8 19.5 15.2 85 1.5 CALM 0 0 0 0 1013.8 1013.0 0.0
19/04:30am 17.4 17.6 14.3 82 1.8 W 6 9 3 5 1013.4 1012.6 0.0
19/04:00am 18.2 18.3 13.9 76 2.5 SW 6 9 3 5 1013.4 1012.6 0.0
19/03:30am 19.6 19.9 14.6 73 2.9 SSW 6 11 3 6 1013.7 1012.9 0.0
19/03:00am 19.8 18.8 14.6 72 3.1 ESE 13 20 7 11 1013.8 1013.0 0.0
19/02:30am 20.8 21.5 16.0 74 2.9 SSE 7 15 4 8 1013.8 1013.0 0.0
19/02:00am 19.8 20.1 16.1 79 2.2 SSE 9 15 5 8 1014.2 1013.4 0.0
19/01:30am 18.2 18.9 15.6 85 1.5 SW 6 11 3 6 1014.7 1014.0 0.0
19/01:00am 18.1 19.0 16.1 88 1.2 N 6 9 3 5 1014.9 1014.2 0.0
19/12:30am 16.4 17.0 15.4 94 0.6 NNE 6 11 3 6 1015.2 1014.5 0.0
19/12:00am 15.9 16.5 14.3 90 0.9 SE 4 7 2 4 1015.6 1014.9 0.0
 
Date/Time
EST
Temp
°C
App
Temp
°C
Dew
Point
°C
Rel
Hum
%
Delta-T
°C
Wind Press
QNH
hPa
Press
MSL
hPa
Rain since
9am
mm
Dir  Spd
km/h
Gust
km/h
Spd
kts
Gust
kts
18/11:30pm 16.9 18.6 15.1 89 1.1 CALM 0 0 0 0 1015.7 1015.0 0.0
18/11:00pm 17.3 19.0 15.1 87 1.3 CALM 0 7 0 4 1015.8 1015.1 0.0
18/10:30pm 18.8 20.6 16.4 86 1.4 ESE 2 6 1 3 1015.6 1014.9 0.0
18/10:00pm 20.2 21.5 17.2 83 1.8 ESE 6 7 3 4 1015.5 1014.8 0.0
18/09:30pm 21.3 22.4 17.9 81 2.1 ENE 9 13 5 7 1015.5 1014.8 0.0
18/09:00pm 21.7 22.8 17.9 79 2.4 ENE 9 15 5 8 1015.5 1014.8 0.0
18/08:30pm 21.7 22.7 17.7 78 2.5 NE 9 15 5 8 1015.2 1014.5 0.0
18/08:00pm 22.1 23.1 17.7 76 2.7 NNE 9 13 5 7 1014.9 1014.2 0.0
18/07:30pm 22.6 22.6 17.1 71 3.4 NE 13 20 7 11 1014.6 1013.9 0.0
18/07:00pm 23.1 22.7 17.1 69 3.7 NE 15 24 8 13 1014.1 1013.3 0.0
18/06:30pm 23.9 23.0 16.9 65 4.3 NE 17 28 9 15 1013.7 1012.9 0.0
18/06:00pm 25.2 24.3 16.9 60 5.2 NE 17 28 9 15 1013.3 1012.5 0.0
18/05:30pm 27.2 26.9 16.5 52 6.7 NE 13 20 7 11 1013.0 1012.2 0.0
18/05:00pm 29.1 28.1 15.6 44 8.4 ESE 15 28 8 15 1012.9 1012.1 0.0
18/04:30pm 29.5 28.3 14.1 39 9.3 E 13 19 7 10 1012.6 1011.8 0.0
18/04:00pm 29.8 28.1 13.5 36 9.8 E 15 20 8 11 1012.6 1011.8 0.0
18/03:30pm 29.5 26.9 12.0 34 10.3 ESE 17 24 9 13 1012.6 1011.8 0.0
18/03:00pm 29.1 27.3 13.3 37 9.4 E 15 22 8 12 1012.8 1012.0 0.0
18/02:30pm 29.7 27.8 14.3 39 9.4 NE 17 28 9 15 1013.0 1012.2 0.0
18/02:00pm 30.4 28.4 14.9 39 9.5 ENE 19 26 10 14 1013.3 1012.5 0.0
18/01:30pm 29.5 27.6 14.1 39 9.3 NE 17 28 9 15 1013.6 1012.8 0.0
18/01:00pm 29.2 27.6 15.0 42 8.7 ENE 17 30 9 16 1014.0 1013.2 0.0
18/12:30pm 30.1 29.2 15.8 42 8.9 E 15 24 8 13 1014.5 1013.8 0.0
18/12:00pm 28.3 26.9 15.6 46 7.8 E 17 28 9 15 1014.9 1014.2 0.0
18/11:30am 28.5 27.2 15.8 46 7.9 NE 17 28 9 15 1015.2 1014.5 0.0
18/11:00am 27.8 26.8 15.5 47 7.6 E 15 26 8 14 1015.8 1015.1 0.0
18/10:30am 27.1 25.2 15.8 50 7.0 ENE 20 32 11 17 1016.2 1015.5 0.0
18/10:00am 26.4 25.2 16.1 53 6.4 ENE 17 26 9 14 1016.4 1015.7 0.0
18/09:30am 25.8 23.5 15.8 54 6.1 ENE 22 32 12 17 1016.2 1015.5 0.0
18/09:00am 25.0 23.5 16.2 58 5.4 E 19 32 10 17 1015.9 1015.2 0.0
18/08:30am 24.6 25.6 16.8 62 4.8 SE 7 15 4 8 1015.6 1014.9 0.0
18/08:00am 22.1 23.4 17.0 73 3.1 SSE 6 11 3 6 1015.4 1014.7 0.0
18/07:30am 19.3 20.9 17.8 91 0.9 SE 6 7 3 4 1015.2 1014.5 0.0
18/07:00am 16.8 17.3 15.0 89 1.0 S 6 9 3 5 1014.9 1014.2 0.0
18/06:30am 17.0 17.8 14.8 87 1.3 S 4 9 2 5 1014.5 1013.8 0.0
18/06:00am 17.1 17.1 15.1 88 1.2 SSW 9 11 5 6 1014.0 1013.2 0.0
18/05:30am 17.0 18.3 15.2 89 1.1 SSE 2 6 1 3 1013.6 1012.8 0.0
18/05:00am 16.4 17.3 15.1 92 0.8 SE 4 7 2 4 1013.1 1012.3 0.0
18/04:30am 15.9 16.1 14.3 90 0.9 SSE 6 7 3 4 1013.0 1012.2 0.0
18/04:00am 16.5 17.0 14.9 90 0.9 S 6 9 3 5 1012.9 1012.1 0.0
18/03:30am 17.1 18.8 15.3 89 1.1 CALM 0 0 0 0 1013.0 1012.2 0.0
18/03:00am 18.4 18.9 15.6 84 1.7 SSW 7 11 4 6 1013.1 1012.3 0.0
18/02:30am 17.5 18.1 15.7 89 1.1 N 7 11 4 6 1013.2 1012.4 0.0
18/02:00am 17.6 18.0 14.7 83 1.7 NE 6 9 3 5 1013.2 1012.4 0.0
18/01:30am 19.6 20.4 17.2 86 1.5 ENE 9 13 5 7 1013.4 1012.6 0.0
18/01:00am 17.1 18.9 15.4 90 1.0 CALM 0 0 0 0 1013.6 1012.8 0.0
18/12:30am 17.5 18.7 15.8 90 1.0 S 4 9 2 5 1013.8 1013.0 0.0
18/12:00am 16.8 17.7 15.0 89 1.0 WNW 4 7 2 4 1014.0 1013.2 0.0
 
Date/Time
EST
Temp
°C
App
Temp
°C
Dew
Point
°C
Rel
Hum
%
Delta-T
°C
Wind Press
QNH
hPa
Press
MSL
hPa
Rain since
9am
mm
Dir  Spd
km/h
Gust
km/h
Spd
kts
Gust
kts
17/11:30pm 17.6 19.5 15.8 89 1.1 CALM 0 0 0 0 1014.2 1013.4 0.0
17/11:00pm 17.9 19.6 16.1 89 1.1 E 2 9 1 5 1014.4 1013.6 0.0
17/10:30pm 17.0 17.9 15.2 89 1.1 SW 4 7 2 4 1014.5 1013.8 0.0
17/10:00pm 17.5 19.2 15.1 86 1.4 CALM 0 0 0 0 1014.6 1013.9 0.0
17/09:30pm 17.8 19.6 15.4 86 1.4 CALM 0 6 0 3 1014.5 1013.8 0.0
17/09:00pm 17.9 19.0 14.6 81 1.9 ENE 2 7 1 4 1014.4 1013.6 0.0
17/08:30pm 19.0 20.9 15.7 81 2.0 CALM 0 0 0 0 1014.1 1013.3 0.0
17/08:00pm 20.0 21.9 15.8 77 2.5 CALM 0 0 0 0 1013.7 1012.9 0.0

Other Formats:

Comma delimited format used in spreadsheet applications
http://www.bom.gov.au/fwo/IDQ60801/IDQ60801.94183.axf

JavaScript Object Notation format (JSON) in row-major order
http://www.bom.gov.au/fwo/IDQ60801/IDQ60801.94183.json